createdAt,value
2017-07-29T00:00:56.692Z,0
2017-07-29T00:01:57.057Z,0
2017-07-29T00:02:57.006Z,0
2017-07-29T00:03:56.694Z,0
2017-07-29T00:04:57.010Z,0
2017-07-29T00:05:56.729Z,0
2017-07-29T00:06:56.705Z,0
2017-07-29T00:07:56.726Z,0
2017-07-29T00:08:56.881Z,0
2017-07-29T00:09:56.719Z,0
2017-07-29T00:10:56.377Z,0
2017-07-29T00:11:56.580Z,0
2017-07-29T00:12:56.721Z,0
2017-07-29T00:13:56.755Z,0
2017-07-29T00:14:56.742Z,0
2017-07-29T00:15:57.034Z,0
2017-07-29T00:16:57.037Z,0
2017-07-29T00:17:56.424Z,0
2017-07-29T00:18:56.735Z,0
2017-07-29T00:19:56.745Z,0
2017-07-29T00:20:56.752Z,0
2017-07-29T00:21:56.746Z,0
2017-07-29T00:22:57.060Z,0
2017-07-29T00:23:57.057Z,0
2017-07-29T00:24:57.051Z,0
2017-07-29T00:25:57.074Z,0
2017-07-29T00:26:56.439Z,0
2017-07-29T00:27:57.053Z,0
2017-07-29T00:28:56.806Z,0
2017-07-29T00:29:56.777Z,0
2017-07-29T00:30:56.753Z,0
2017-07-29T00:31:57.065Z,0
2017-07-29T00:32:57.071Z,0
2017-07-29T00:33:57.078Z,0
2017-07-29T00:34:56.782Z,0
2017-07-29T00:35:56.763Z,0
2017-07-29T00:36:56.776Z,0
2017-07-29T00:37:57.067Z,0
2017-07-29T00:38:56.781Z,0
2017-07-29T00:39:56.782Z,0
2017-07-29T00:40:57.099Z,0
2017-07-29T00:41:57.107Z,0
2017-07-29T00:42:56.486Z,0
2017-07-29T00:43:57.387Z,0
2017-07-29T00:44:57.087Z,0
2017-07-29T00:45:57.092Z,0
2017-07-29T00:46:56.480Z,0
2017-07-29T00:47:57.091Z,0
2017-07-29T00:48:56.489Z,0
2017-07-29T00:49:56.483Z,0
2017-07-29T00:50:57.097Z,0
2017-07-29T00:51:57.102Z,0
2017-07-29T00:52:56.797Z,0
2017-07-29T00:53:57.094Z,0
2017-07-29T00:54:57.197Z,0
2017-07-29T00:55:57.097Z,0
2017-07-29T00:56:56.798Z,0
2017-07-29T00:57:56.800Z,0
2017-07-29T00:58:57.156Z,0
2017-07-29T00:59:56.800Z,0
2017-07-29T01:00:57.115Z,0
2017-07-29T01:01:56.815Z,0
2017-07-29T01:02:57.122Z,0
2017-07-29T01:03:56.812Z,0
2017-07-29T01:04:57.127Z,0
2017-07-29T01:05:57.124Z,0
2017-07-29T01:06:57.132Z,0
2017-07-29T01:07:57.114Z,0
2017-07-29T01:08:56.824Z,0
2017-07-29T01:09:56.261Z,0
2017-07-29T01:10:56.818Z,0
2017-07-29T01:11:56.836Z,0
2017-07-29T01:12:57.120Z,0
2017-07-29T01:13:57.149Z,0
2017-07-29T01:14:57.126Z,0
2017-07-29T01:15:57.130Z,0
2017-07-29T01:16:57.183Z,0
2017-07-29T01:17:56.858Z,0
2017-07-29T01:18:57.135Z,0
2017-07-29T01:19:56.870Z,0
2017-07-29T01:20:56.839Z,0
2017-07-29T01:21:57.152Z,0
2017-07-29T01:22:56.838Z,0
2017-07-29T01:23:57.150Z,0
2017-07-29T01:24:57.160Z,0
2017-07-29T01:25:57.157Z,0
2017-07-29T01:26:57.163Z,0
2017-07-29T01:27:57.156Z,0
2017-07-29T01:28:56.862Z,0
2017-07-29T01:30:00.014Z,0
2017-07-29T01:30:56.853Z,0
2017-07-29T01:31:57.167Z,0
2017-07-29T01:32:57.165Z,0
2017-07-29T01:33:57.161Z,0
2017-07-29T01:34:57.175Z,0
2017-07-29T01:35:56.864Z,0
2017-07-29T01:36:57.169Z,0
2017-07-29T01:37:57.172Z,0
2017-07-29T01:38:57.173Z,0
2017-07-29T01:39:57.172Z,0
2017-07-29T01:40:56.868Z,0
2017-07-29T01:41:56.871Z,0
2017-07-29T01:42:57.197Z,0
2017-07-29T01:43:56.878Z,0
2017-07-29T01:44:58.983Z,0
2017-07-29T01:45:57.177Z,0
2017-07-29T01:46:57.239Z,0
2017-07-29T01:47:57.184Z,0
2017-07-29T01:48:57.183Z,0
2017-07-29T01:49:56.588Z,0
2017-07-29T01:50:56.890Z,0
2017-07-29T01:51:57.186Z,0
2017-07-29T01:52:57.188Z,0
2017-07-29T01:53:56.890Z,0
2017-07-29T01:54:56.585Z,0
2017-07-29T01:55:57.192Z,0
2017-07-29T01:56:57.193Z,0
2017-07-29T01:57:57.195Z,0
2017-07-29T01:58:57.204Z,0
2017-07-29T01:59:58.755Z,0
2017-07-29T02:00:57.207Z,0
2017-07-29T02:01:57.241Z,0
2017-07-29T02:02:57.207Z,0
2017-07-29T02:03:57.203Z,0
2017-07-29T02:04:57.227Z,0
2017-07-29T02:05:57.212Z,0
2017-07-29T02:06:57.233Z,0
2017-07-29T02:07:57.214Z,0
2017-07-29T02:08:57.212Z,0
2017-07-29T02:09:56.630Z,0
2017-07-29T02:10:57.214Z,0
2017-07-29T02:11:57.217Z,0
2017-07-29T02:12:57.216Z,0
2017-07-29T02:13:57.234Z,0
2017-07-29T02:14:57.216Z,0
2017-07-29T02:15:57.306Z,0
2017-07-29T02:16:56.922Z,0
2017-07-29T02:17:57.237Z,0
2017-07-29T02:18:56.926Z,0
2017-07-29T02:19:57.239Z,0
2017-07-29T02:20:56.928Z,0
2017-07-29T02:21:57.237Z,0
2017-07-29T02:22:57.247Z,0
2017-07-29T02:23:57.246Z,0
2017-07-29T02:24:57.253Z,0
2017-07-29T02:25:56.635Z,0
2017-07-29T02:26:57.254Z,0
2017-07-29T02:27:56.941Z,0
2017-07-29T02:28:57.254Z,0
2017-07-29T02:29:57.249Z,0
2017-07-29T02:30:57.753Z,0
2017-07-29T02:31:57.262Z,0
2017-07-29T02:32:56.971Z,0
2017-07-29T02:33:56.947Z,0
2017-07-29T02:34:56.960Z,0
2017-07-29T02:35:56.650Z,0
2017-07-29T02:36:57.255Z,0
2017-07-29T02:37:56.650Z,0
2017-07-29T02:38:57.259Z,0
2017-07-29T02:39:57.274Z,0
2017-07-29T02:40:57.271Z,0
2017-07-29T02:41:57.004Z,0
2017-07-29T02:42:56.672Z,0
2017-07-29T02:43:57.264Z,0
2017-07-29T02:44:57.261Z,0
2017-07-29T02:45:57.825Z,0
2017-07-29T02:46:57.303Z,0
2017-07-29T02:47:57.270Z,0
2017-07-29T02:48:57.271Z,0
2017-07-29T02:49:56.706Z,0
2017-07-29T02:50:57.326Z,0
2017-07-29T02:51:57.283Z,0
2017-07-29T02:52:56.988Z,0
2017-07-29T02:53:57.275Z,0
2017-07-29T02:54:57.281Z,0
2017-07-29T02:55:56.972Z,0
2017-07-29T02:56:56.673Z,0
2017-07-29T02:57:56.982Z,0
2017-07-29T02:58:57.298Z,0
2017-07-29T02:59:57.282Z,0
2017-07-29T03:00:57.343Z,0
2017-07-29T03:01:56.993Z,0
2017-07-29T03:02:57.298Z,0
2017-07-29T03:03:57.297Z,0
2017-07-29T03:04:56.997Z,0
2017-07-29T03:05:57.014Z,0
2017-07-29T03:06:57.290Z,0
2017-07-29T03:07:57.300Z,0
2017-07-29T03:08:57.300Z,0
2017-07-29T03:09:56.998Z,0
2017-07-29T03:10:56.697Z,0
2017-07-29T03:11:57.309Z,0
2017-07-29T03:12:57.302Z,0
2017-07-29T03:13:57.302Z,0
2017-07-29T03:14:57.306Z,0
2017-07-29T03:15:57.803Z,0
2017-07-29T03:16:57.017Z,0
2017-07-29T03:17:57.310Z,0
2017-07-29T03:18:57.307Z,0
2017-07-29T03:19:57.010Z,0
2017-07-29T03:20:57.306Z,0
2017-07-29T03:21:57.020Z,0
2017-07-29T03:22:57.027Z,0
2017-07-29T03:23:57.329Z,0
2017-07-29T03:24:57.327Z,0
2017-07-29T03:25:57.010Z,0
2017-07-29T03:26:57.326Z,0
2017-07-29T03:27:57.042Z,0
2017-07-29T03:28:57.331Z,0
2017-07-29T03:29:57.325Z,0
2017-07-29T03:30:57.328Z,0
2017-07-29T03:31:57.331Z,0
2017-07-29T03:32:57.328Z,0
2017-07-29T03:33:57.334Z,0
2017-07-29T03:34:57.329Z,0
2017-07-29T03:35:57.329Z,0
2017-07-29T03:36:57.332Z,0
2017-07-29T03:37:57.029Z,0
2017-07-29T03:38:57.329Z,0
2017-07-29T03:39:57.336Z,0
2017-07-29T03:40:57.338Z,0
2017-07-29T03:41:56.733Z,0
2017-07-29T03:42:57.336Z,0
2017-07-29T03:43:57.343Z,0
2017-07-29T03:44:57.334Z,0
2017-07-29T03:45:58.654Z,5
2017-07-29T03:46:57.035Z,5
2017-07-29T03:47:57.337Z,5
2017-07-29T03:48:57.337Z,5
2017-07-29T03:49:57.049Z,5
2017-07-29T03:50:57.335Z,5
2017-07-29T03:51:57.344Z,5
2017-07-29T03:52:57.347Z,5
2017-07-29T03:53:57.343Z,5
2017-07-29T03:54:57.348Z,10
2017-07-29T03:55:57.347Z,10
2017-07-29T03:56:57.340Z,10
2017-07-29T03:57:57.350Z,10
2017-07-29T03:58:57.344Z,10
2017-07-29T03:59:57.345Z,15
2017-07-29T04:00:58.369Z,15
2017-07-29T04:01:57.375Z,15
2017-07-29T04:02:57.373Z,15
2017-07-29T04:03:57.354Z,20
2017-07-29T04:04:57.361Z,20
2017-07-29T04:05:57.051Z,20
2017-07-29T04:06:57.367Z,20
2017-07-29T04:07:57.056Z,25
2017-07-29T04:08:56.753Z,25
2017-07-29T04:09:57.372Z,25
2017-07-29T04:10:56.758Z,30
2017-07-29T04:11:57.064Z,30
2017-07-29T04:12:57.364Z,30
2017-07-29T04:13:57.356Z,35
2017-07-29T04:14:57.061Z,35
2017-07-29T04:15:59.363Z,35
2017-07-29T04:16:57.369Z,35
2017-07-29T04:17:57.063Z,40
2017-07-29T04:18:57.062Z,40
2017-07-29T04:19:57.065Z,40
2017-07-29T04:20:57.068Z,45
2017-07-29T04:21:57.365Z,45
2017-07-29T04:22:57.380Z,50
2017-07-29T04:23:57.370Z,65
2017-07-29T04:24:57.383Z,85
2017-07-29T04:25:57.084Z,95
2017-07-29T04:26:57.385Z,95
2017-07-29T04:27:57.377Z,100
2017-07-29T04:28:57.391Z,105
2017-07-29T04:29:57.375Z,105
2017-07-29T04:30:57.079Z,110
2017-07-29T04:31:57.446Z,115
2017-07-29T04:32:57.379Z,120
2017-07-29T04:33:57.396Z,120
2017-07-29T04:34:57.383Z,130
2017-07-29T04:35:57.387Z,135
2017-07-29T04:36:57.396Z,135
2017-07-29T04:37:57.406Z,140
2017-07-29T04:38:57.398Z,145
2017-07-29T04:39:57.407Z,145
2017-07-29T04:40:57.111Z,150
2017-07-29T04:41:57.409Z,155
2017-07-29T04:42:57.109Z,160
2017-07-29T04:43:57.114Z,165
2017-07-29T04:44:57.423Z,170
2017-07-29T04:45:57.120Z,165
2017-07-29T04:47:00.785Z,170
2017-07-29T04:47:57.120Z,165
2017-07-29T04:48:57.432Z,175
2017-07-29T04:49:57.134Z,180
2017-07-29T04:50:57.135Z,165
2017-07-29T04:51:57.143Z,135
2017-07-29T04:52:57.443Z,125
2017-07-29T04:53:57.457Z,120
2017-07-29T04:54:56.875Z,125
2017-07-29T04:55:57.454Z,150
2017-07-29T04:56:57.175Z,165
2017-07-29T04:57:57.477Z,175
2017-07-29T04:58:57.479Z,185
2017-07-29T04:59:57.183Z,190
2017-07-29T05:00:57.478Z,200
2017-07-29T05:02:00.287Z,200
2017-07-29T05:02:57.499Z,200
2017-07-29T05:03:57.522Z,200
2017-07-29T05:04:57.204Z,140
2017-07-29T05:05:57.207Z,155
2017-07-29T05:06:58.321Z,135
2017-07-29T05:07:57.517Z,135
2017-07-29T05:08:57.221Z,125
2017-07-29T05:09:57.525Z,125
2017-07-29T05:10:57.514Z,125
2017-07-29T05:11:57.230Z,125
2017-07-29T05:12:57.533Z,125
2017-07-29T05:13:57.552Z,125
2017-07-29T05:14:57.242Z,125
2017-07-29T05:15:57.555Z,125
2017-07-29T05:17:01.053Z,160
2017-07-29T05:17:57.565Z,130
2017-07-29T05:18:57.261Z,135
2017-07-29T05:19:57.278Z,140
2017-07-29T05:20:56.969Z,140
2017-07-29T05:21:57.294Z,140
2017-07-29T05:22:57.587Z,145
2017-07-29T05:23:57.579Z,140
2017-07-29T05:24:57.585Z,140
2017-07-29T05:25:57.283Z,135
2017-07-29T05:26:57.584Z,135
2017-07-29T05:27:57.281Z,130
2017-07-29T05:28:57.597Z,305
2017-07-29T05:29:57.294Z,130
2017-07-29T05:30:57.298Z,130
2017-07-29T05:31:56.998Z,130
2017-07-29T05:32:58.723Z,130
2017-07-29T05:33:57.612Z,130
2017-07-29T05:34:57.614Z,135
2017-07-29T05:35:57.624Z,135
2017-07-29T05:36:57.622Z,135
2017-07-29T05:37:57.328Z,135
2017-07-29T05:38:57.637Z,140
2017-07-29T05:39:57.633Z,140
2017-07-29T05:40:57.333Z,140
2017-07-29T05:41:57.350Z,345
2017-07-29T05:42:57.641Z,350
2017-07-29T05:43:57.343Z,350
2017-07-29T05:44:57.353Z,345
2017-07-29T05:45:57.347Z,345
2017-07-29T05:46:57.683Z,355
2017-07-29T05:47:59.718Z,360
2017-07-29T05:48:57.365Z,360
2017-07-29T05:49:57.672Z,360
2017-07-29T05:50:57.063Z,365
2017-07-29T05:51:57.681Z,365
2017-07-29T05:52:57.413Z,360
2017-07-29T05:53:57.380Z,370
2017-07-29T05:54:57.398Z,375
2017-07-29T05:55:57.393Z,375
2017-07-29T05:56:57.727Z,375
2017-07-29T05:57:57.407Z,380
2017-07-29T05:58:57.419Z,380
2017-07-29T05:59:56.812Z,380
2017-07-29T06:00:57.123Z,375
2017-07-29T06:01:57.426Z,365
2017-07-29T06:02:57.798Z,370
2017-07-29T06:03:57.447Z,370
2017-07-29T06:04:57.453Z,365
2017-07-29T06:05:57.778Z,365
2017-07-29T06:06:57.763Z,365
2017-07-29T06:07:57.510Z,370
2017-07-29T06:08:57.209Z,365
2017-07-29T06:09:57.494Z,365
2017-07-29T06:10:57.802Z,365
2017-07-29T06:11:57.500Z,370
2017-07-29T06:12:57.813Z,370
2017-07-29T06:13:57.528Z,370
2017-07-29T06:14:57.842Z,375
2017-07-29T06:15:57.834Z,375
2017-07-29T06:16:57.851Z,375
2017-07-29T06:17:58.051Z,375
2017-07-29T06:18:57.855Z,390
2017-07-29T06:19:57.577Z,395
2017-07-29T06:20:57.873Z,395
2017-07-29T06:21:58.320Z,390
2017-07-29T06:22:58.055Z,390
2017-07-29T06:23:57.886Z,390
2017-07-29T06:24:57.309Z,385
2017-07-29T06:25:57.606Z,380
2017-07-29T06:26:57.630Z,385
2017-07-29T06:27:57.632Z,385
2017-07-29T06:28:57.943Z,390
2017-07-29T06:29:57.648Z,385
2017-07-29T06:30:57.362Z,380
2017-07-29T06:31:57.971Z,395
2017-07-29T06:32:58.422Z,380
2017-07-29T06:33:57.978Z,385
2017-07-29T06:34:57.999Z,380
2017-07-29T06:35:58.006Z,380
2017-07-29T06:36:58.023Z,380
2017-07-29T06:37:58.018Z,380
2017-07-29T06:38:57.728Z,380
2017-07-29T06:39:57.438Z,385
2017-07-29T06:40:58.065Z,385
2017-07-29T06:41:57.448Z,325
2017-07-29T06:42:57.758Z,240
2017-07-29T06:43:57.772Z,250
2017-07-29T06:44:58.079Z,240
2017-07-29T06:45:57.807Z,280
2017-07-29T06:46:58.098Z,265
2017-07-29T06:47:57.826Z,390
2017-07-29T06:48:58.171Z,405
2017-07-29T06:49:58.126Z,410
2017-07-29T06:50:58.137Z,400
2017-07-29T06:51:58.147Z,380
2017-07-29T06:52:57.546Z,265
2017-07-29T06:53:58.150Z,335
2017-07-29T06:54:57.592Z,305
2017-07-29T06:55:58.200Z,235
2017-07-29T06:56:57.900Z,250
2017-07-29T06:57:58.200Z,320
2017-07-29T06:58:58.194Z,325
2017-07-29T06:59:58.212Z,320
2017-07-29T07:00:58.219Z,315
2017-07-29T07:01:58.219Z,340
2017-07-29T07:02:58.234Z,320
2017-07-29T07:03:59.238Z,305
2017-07-29T07:04:58.246Z,385
2017-07-29T07:05:58.259Z,385
2017-07-29T07:06:58.265Z,255
2017-07-29T07:07:58.264Z,305
2017-07-29T07:08:57.993Z,200
2017-07-29T07:09:58.291Z,200
2017-07-29T07:10:58.309Z,235
2017-07-29T07:11:57.687Z,220
2017-07-29T07:12:58.004Z,240
2017-07-29T07:13:58.309Z,260
2017-07-29T07:14:58.319Z,330
2017-07-29T07:15:57.722Z,255
2017-07-29T07:16:58.336Z,320
2017-07-29T07:17:58.036Z,235
2017-07-29T07:18:58.402Z,310
2017-07-29T07:19:58.056Z,285
2017-07-29T07:20:58.053Z,325
2017-07-29T07:21:58.370Z,345
2017-07-29T07:22:58.383Z,340
2017-07-29T07:23:58.082Z,345
2017-07-29T07:24:58.384Z,345
2017-07-29T07:25:58.405Z,375
2017-07-29T07:26:58.407Z,330
2017-07-29T07:27:58.421Z,370
2017-07-29T07:28:58.124Z,410
2017-07-29T07:29:58.450Z,410
2017-07-29T07:30:58.449Z,405
2017-07-29T07:31:57.840Z,345
2017-07-29T07:32:57.859Z,225
2017-07-29T07:33:59.815Z,240
2017-07-29T07:34:58.513Z,260
2017-07-29T07:35:58.484Z,340
2017-07-29T07:36:58.489Z,245
2017-07-29T07:37:58.199Z,240
2017-07-29T07:38:58.495Z,300
2017-07-29T07:39:57.910Z,365
2017-07-29T07:40:58.511Z,245
2017-07-29T07:41:58.234Z,220
2017-07-29T07:42:58.553Z,320
2017-07-29T07:43:58.230Z,285
2017-07-29T07:44:57.933Z,345
2017-07-29T07:45:58.552Z,370
2017-07-29T07:46:57.956Z,310
2017-07-29T07:47:58.259Z,215
2017-07-29T07:48:58.632Z,225
2017-07-29T07:49:58.572Z,240
2017-07-29T07:50:58.584Z,225
2017-07-29T07:51:58.282Z,230
2017-07-29T07:52:58.319Z,235
2017-07-29T07:53:58.310Z,255
2017-07-29T07:54:58.316Z,285
2017-07-29T07:55:58.323Z,280
2017-07-29T07:56:58.034Z,350
2017-07-29T07:57:58.330Z,380
2017-07-29T07:58:58.028Z,380
2017-07-29T07:59:58.355Z,375
2017-07-29T08:00:58.718Z,370
2017-07-29T08:01:58.662Z,370
2017-07-29T08:02:58.675Z,370
2017-07-29T08:04:01.234Z,370
2017-07-29T08:04:58.382Z,370
2017-07-29T08:05:58.392Z,370
2017-07-29T08:06:58.391Z,370
2017-07-29T08:07:58.397Z,365
2017-07-29T08:08:58.718Z,365
2017-07-29T08:09:58.413Z,360
2017-07-29T08:10:58.429Z,355
2017-07-29T08:11:58.134Z,355
2017-07-29T08:12:58.443Z,360
2017-07-29T08:13:58.454Z,360
2017-07-29T08:14:58.759Z,370
2017-07-29T08:15:58.469Z,370
2017-07-29T08:16:58.505Z,365
2017-07-29T08:17:58.787Z,370
2017-07-29T08:18:58.867Z,370
2017-07-29T08:19:58.511Z,365
2017-07-29T08:20:58.820Z,360
2017-07-29T08:21:58.823Z,375
2017-07-29T08:22:58.838Z,385
2017-07-29T08:23:58.241Z,390
2017-07-29T08:24:58.547Z,395
2017-07-29T08:25:58.874Z,405
2017-07-29T08:26:58.877Z,410
2017-07-29T08:27:58.888Z,405
2017-07-29T08:28:58.891Z,410
2017-07-29T08:29:58.910Z,290
2017-07-29T08:30:58.908Z,285
2017-07-29T08:31:58.912Z,290
2017-07-29T08:32:58.624Z,425
2017-07-29T08:33:58.940Z,395
2017-07-29T08:35:02.499Z,300
2017-07-29T08:35:58.368Z,365
2017-07-29T08:36:58.656Z,305
2017-07-29T08:37:58.665Z,375
2017-07-29T08:38:58.371Z,375
2017-07-29T08:39:58.685Z,300
2017-07-29T08:40:58.997Z,385
2017-07-29T08:41:58.710Z,425
2017-07-29T08:42:58.403Z,455
2017-07-29T08:43:59.019Z,350
2017-07-29T08:44:58.735Z,420
2017-07-29T08:45:59.036Z,320
2017-07-29T08:46:58.751Z,325
2017-07-29T08:47:58.749Z,340
2017-07-29T08:48:58.751Z,320
2017-07-29T08:49:59.124Z,375
2017-07-29T08:50:58.166Z,410
2017-07-29T08:51:59.084Z,395
2017-07-29T08:52:59.090Z,395
2017-07-29T08:53:58.527Z,385
2017-07-29T08:54:58.497Z,380
2017-07-29T08:55:59.114Z,370
2017-07-29T08:56:59.115Z,360
2017-07-29T08:57:58.845Z,370
2017-07-29T08:58:59.161Z,265
2017-07-29T08:59:58.839Z,265
2017-07-29T09:00:59.151Z,300
2017-07-29T09:01:58.901Z,360
2017-07-29T09:02:59.165Z,350
2017-07-29T09:03:59.171Z,345
2017-07-29T09:04:59.458Z,340
2017-07-29T09:05:58.592Z,330
2017-07-29T09:06:58.897Z,330
2017-07-29T09:07:59.199Z,285
2017-07-29T09:08:58.601Z,295
2017-07-29T09:09:58.930Z,325
2017-07-29T09:10:58.633Z,325
2017-07-29T09:11:59.231Z,325
2017-07-29T09:12:59.473Z,320
2017-07-29T09:13:59.176Z,315
2017-07-29T09:14:58.837Z,315
2017-07-29T09:15:58.259Z,305
2017-07-29T09:16:59.178Z,295
2017-07-29T09:17:59.068Z,295
2017-07-29T09:18:59.552Z,285
2017-07-29T09:19:59.427Z,280
2017-07-29T09:20:59.449Z,275
2017-07-29T09:21:59.299Z,275
2017-07-29T09:22:59.304Z,265
2017-07-29T09:23:59.309Z,270
2017-07-29T09:24:59.355Z,270
2017-07-29T09:25:59.046Z,275
2017-07-29T09:26:59.330Z,280
2017-07-29T09:27:59.349Z,280
2017-07-29T09:28:59.357Z,285
2017-07-29T09:29:59.358Z,285
2017-07-29T09:30:59.074Z,265
2017-07-29T09:31:59.072Z,280
2017-07-29T09:32:59.090Z,270
2017-07-29T09:33:59.080Z,275
2017-07-29T09:34:59.075Z,275
2017-07-29T09:36:00.539Z,265
2017-07-29T09:36:59.407Z,260
2017-07-29T09:37:59.409Z,270
2017-07-29T09:38:59.115Z,285
2017-07-29T09:39:59.418Z,295
2017-07-29T09:40:59.423Z,300
2017-07-29T09:41:59.135Z,300
2017-07-29T09:42:59.454Z,300
2017-07-29T09:43:59.163Z,300
2017-07-29T09:44:59.141Z,280
2017-07-29T09:45:59.143Z,275
2017-07-29T09:46:59.140Z,270
2017-07-29T09:47:59.455Z,270
2017-07-29T09:48:59.463Z,270
2017-07-29T09:49:59.179Z,270
2017-07-29T09:50:59.947Z,270
2017-07-29T09:52:00.237Z,260
2017-07-29T09:53:00.009Z,255
2017-07-29T09:53:58.884Z,250
2017-07-29T09:54:59.231Z,215
2017-07-29T09:55:59.208Z,240
2017-07-29T09:56:58.907Z,240
2017-07-29T09:57:58.314Z,250
2017-07-29T09:58:59.210Z,260
2017-07-29T09:59:59.519Z,265
2017-07-29T10:00:58.936Z,215
2017-07-29T10:01:59.232Z,275
2017-07-29T10:02:59.548Z,275
2017-07-29T10:03:59.556Z,275
2017-07-29T10:04:59.557Z,265
2017-07-29T10:06:03.376Z,250
2017-07-29T10:06:59.282Z,240
2017-07-29T10:07:59.571Z,250
2017-07-29T10:08:59.600Z,240
2017-07-29T10:09:58.988Z,235
2017-07-29T10:10:59.292Z,240
2017-07-29T10:11:59.601Z,230
2017-07-29T10:12:59.004Z,215
2017-07-29T10:13:59.614Z,190
2017-07-29T10:14:59.613Z,210
2017-07-29T10:15:59.340Z,160
2017-07-29T10:16:59.649Z,180
2017-07-29T10:17:59.628Z,210
2017-07-29T10:18:59.349Z,200
2017-07-29T10:19:59.344Z,195
2017-07-29T10:20:59.109Z,215
2017-07-29T10:21:59.657Z,215
2017-07-29T10:22:59.069Z,215
2017-07-29T10:23:59.367Z,215
2017-07-29T10:24:59.372Z,215
2017-07-29T10:25:59.379Z,215
2017-07-29T10:26:59.393Z,215
2017-07-29T10:27:59.691Z,215
2017-07-29T10:28:59.696Z,210
2017-07-29T10:29:59.707Z,205
2017-07-29T10:30:59.713Z,215
2017-07-29T10:31:59.421Z,210
2017-07-29T10:32:59.418Z,200
2017-07-29T10:33:59.720Z,215
2017-07-29T10:34:59.425Z,220
2017-07-29T10:36:00.287Z,210
2017-07-29T10:36:59.741Z,210
2017-07-29T10:37:59.740Z,215
2017-07-29T10:38:59.752Z,185
2017-07-29T10:39:59.163Z,185
2017-07-29T10:40:59.471Z,210
2017-07-29T10:41:59.471Z,215
2017-07-29T10:42:59.772Z,215
2017-07-29T10:43:59.479Z,210
2017-07-29T10:44:59.798Z,210
2017-07-29T10:45:59.194Z,210
2017-07-29T10:46:59.803Z,215
2017-07-29T10:47:59.198Z,205
2017-07-29T10:48:59.229Z,225
2017-07-29T10:49:59.615Z,225
2017-07-29T10:50:59.834Z,220
2017-07-29T10:51:59.578Z,220
2017-07-29T10:52:59.847Z,210
2017-07-29T10:53:59.539Z,205
2017-07-29T10:54:59.855Z,210
2017-07-29T10:55:59.561Z,205
2017-07-29T10:56:59.560Z,205
2017-07-29T10:57:59.560Z,205
2017-07-29T10:58:59.562Z,180
2017-07-29T10:59:59.894Z,185
2017-07-29T11:00:59.581Z,180
2017-07-29T11:01:59.291Z,180
2017-07-29T11:02:59.895Z,190
2017-07-29T11:03:59.303Z,185
2017-07-29T11:04:59.605Z,175
2017-07-29T11:05:59.612Z,195
2017-07-29T11:07:00.341Z,200
2017-07-29T11:07:59.618Z,205
2017-07-29T11:08:59.633Z,200
2017-07-29T11:09:59.625Z,200
2017-07-29T11:10:59.643Z,205
2017-07-29T11:11:59.662Z,205
2017-07-29T11:12:59.654Z,215
2017-07-29T11:13:59.655Z,205
2017-07-29T11:14:59.669Z,205
2017-07-29T11:15:59.969Z,200
2017-07-29T11:16:59.990Z,205
2017-07-29T11:17:59.383Z,210
2017-07-29T11:18:59.680Z,205
2017-07-29T11:20:00.005Z,205
2017-07-29T11:20:59.704Z,205
2017-07-29T11:22:00.052Z,205
2017-07-29T11:23:00.006Z,200
2017-07-29T11:24:00.036Z,195
2017-07-29T11:24:59.750Z,175
2017-07-29T11:25:59.805Z,175
2017-07-29T11:27:00.132Z,185
2017-07-29T11:27:59.440Z,165
2017-07-29T11:28:59.445Z,170
2017-07-29T11:29:59.690Z,170
2017-07-29T11:31:00.390Z,165
2017-07-29T11:32:00.207Z,145
2017-07-29T11:33:00.079Z,135
2017-07-29T11:33:59.493Z,145
2017-07-29T11:34:59.782Z,145
2017-07-29T11:35:59.811Z,155
2017-07-29T11:37:01.902Z,170
2017-07-29T11:37:59.194Z,170
2017-07-29T11:39:00.143Z,170
2017-07-29T11:40:00.114Z,195
2017-07-29T11:41:00.119Z,190
2017-07-29T11:42:00.127Z,190
2017-07-29T11:43:00.125Z,180
2017-07-29T11:43:59.843Z,175
2017-07-29T11:44:59.231Z,190
2017-07-29T11:46:00.154Z,185
2017-07-29T11:47:00.156Z,180
2017-07-29T11:47:59.913Z,180
2017-07-29T11:49:00.168Z,190
2017-07-29T11:50:00.170Z,190
2017-07-29T11:51:00.178Z,185
2017-07-29T11:52:00.245Z,185
2017-07-29T11:52:59.570Z,185
2017-07-29T11:53:59.578Z,190
2017-07-29T11:54:59.885Z,190
2017-07-29T11:56:00.195Z,190
2017-07-29T11:57:00.216Z,190
2017-07-29T11:57:59.613Z,190
2017-07-29T11:58:59.618Z,190
2017-07-29T12:00:00.243Z,190
2017-07-29T12:01:00.237Z,190
2017-07-29T12:01:59.698Z,190
2017-07-29T12:03:00.248Z,190
2017-07-29T12:03:59.958Z,185
2017-07-29T12:05:00.255Z,185
2017-07-29T12:06:00.352Z,185
2017-07-29T12:07:01.035Z,185
2017-07-29T12:07:59.665Z,185
2017-07-29T12:09:00.009Z,185
2017-07-29T12:10:00.298Z,180
2017-07-29T12:11:00.328Z,175
2017-07-29T12:11:59.680Z,180
2017-07-29T12:13:00.296Z,180
2017-07-29T12:13:59.395Z,180
2017-07-29T12:15:00.011Z,180
2017-07-29T12:16:00.034Z,180
2017-07-29T12:17:00.034Z,180
2017-07-29T12:18:00.027Z,180
2017-07-29T12:19:00.356Z,180
2017-07-29T12:19:59.730Z,185
2017-07-29T12:21:00.039Z,185
2017-07-29T12:21:59.490Z,190
2017-07-29T12:23:00.063Z,190
2017-07-29T12:24:00.352Z,195
2017-07-29T12:25:00.377Z,190
2017-07-29T12:26:00.377Z,190
2017-07-29T12:27:00.383Z,195
2017-07-29T12:27:59.777Z,195
2017-07-29T12:29:00.387Z,200
2017-07-29T12:29:59.804Z,195
2017-07-29T12:31:00.414Z,195
2017-07-29T12:32:00.100Z,210
2017-07-29T12:33:00.418Z,220
2017-07-29T12:34:00.427Z,210
2017-07-29T12:34:59.843Z,215
2017-07-29T12:36:00.127Z,230
2017-07-29T12:36:59.827Z,230
2017-07-29T12:38:00.148Z,230
2017-07-29T12:39:00.146Z,230
2017-07-29T12:40:00.164Z,230
2017-07-29T12:40:59.883Z,230
2017-07-29T12:41:59.879Z,230
2017-07-29T12:43:00.464Z,225
2017-07-29T12:44:00.469Z,220
2017-07-29T12:45:00.176Z,225
2017-07-29T12:46:00.181Z,220
2017-07-29T12:47:00.582Z,220
2017-07-29T12:48:00.192Z,210
2017-07-29T12:49:00.551Z,215
2017-07-29T12:50:00.217Z,215
2017-07-29T12:51:00.219Z,210
2017-07-29T12:52:00.586Z,205
2017-07-29T12:53:00.521Z,200
2017-07-29T12:54:00.256Z,200
2017-07-29T12:55:00.253Z,195
2017-07-29T12:56:00.250Z,195
2017-07-29T12:57:00.558Z,190
2017-07-29T12:58:00.602Z,185
2017-07-29T12:59:00.627Z,185
2017-07-29T13:00:00.273Z,185
2017-07-29T13:00:59.694Z,180
2017-07-29T13:02:00.002Z,180
2017-07-29T13:02:59.679Z,180
2017-07-29T13:04:00.599Z,185
2017-07-29T13:05:00.625Z,185
2017-07-29T13:06:00.302Z,180
2017-07-29T13:07:00.014Z,180
2017-07-29T13:08:01.447Z,180
2017-07-29T13:09:00.352Z,185
2017-07-29T13:10:00.339Z,175
2017-07-29T13:11:00.046Z,175
2017-07-29T13:12:00.362Z,175
2017-07-29T13:13:00.356Z,180
2017-07-29T13:14:00.068Z,180
2017-07-29T13:15:00.357Z,180
2017-07-29T13:16:00.380Z,180
2017-07-29T13:17:00.681Z,180
2017-07-29T13:18:00.708Z,180
2017-07-29T13:19:00.701Z,185
2017-07-29T13:20:00.702Z,190
2017-07-29T13:21:00.704Z,185
2017-07-29T13:22:00.722Z,190
2017-07-29T13:23:00.306Z,185
2017-07-29T13:23:59.807Z,185
2017-07-29T13:25:00.717Z,180
2017-07-29T13:26:00.196Z,180
2017-07-29T13:27:00.501Z,175
2017-07-29T13:28:00.442Z,170
2017-07-29T13:29:00.758Z,175
2017-07-29T13:30:00.165Z,175
2017-07-29T13:31:00.521Z,170
2017-07-29T13:31:59.884Z,170
2017-07-29T13:33:00.315Z,170
2017-07-29T13:34:00.188Z,170
2017-07-29T13:35:00.778Z,170
2017-07-29T13:36:00.815Z,170
2017-07-29T13:37:00.795Z,165
2017-07-29T13:38:00.872Z,165
2017-07-29T13:39:00.521Z,165
2017-07-29T13:40:00.820Z,170
2017-07-29T13:41:00.255Z,165
2017-07-29T13:42:00.577Z,165
2017-07-29T13:43:00.525Z,165
2017-07-29T13:44:00.870Z,165
2017-07-29T13:45:00.859Z,165
2017-07-29T13:46:00.869Z,165
2017-07-29T13:47:00.861Z,165
2017-07-29T13:48:00.882Z,165
2017-07-29T13:49:00.921Z,165
2017-07-29T13:50:00.616Z,165
2017-07-29T13:51:00.586Z,165
2017-07-29T13:52:00.911Z,135
2017-07-29T13:53:00.969Z,165
2017-07-29T13:54:00.602Z,165
2017-07-29T13:55:00.611Z,160
2017-07-29T13:56:00.914Z,155
2017-07-29T13:57:00.915Z,160
2017-07-29T13:58:00.339Z,165
2017-07-29T13:59:00.657Z,160
2017-07-29T14:00:00.665Z,165
2017-07-29T14:01:00.394Z,165
2017-07-29T14:02:00.826Z,160
2017-07-29T14:03:00.747Z,160
2017-07-29T14:04:00.799Z,160